Time,TemperatureF,DewpointF,PressureIn,WindDirection,WindDirectionDegrees,WindSpeedMPH,WindSpeedGustMPH,Humidity,HourlyPrecipIn,Conditions,Clouds,dailyrainin,SoftwareType,DateUTC
2013-08-05 00:00:00,87.0,73.0,29.92,SSE,167,15.0,22.0,63,0.00,,,0.00,weatherlink.com 1.10,2013-08-05 05:00:00,
2013-08-05 00:15:00,86.6,72.0,29.92,South,177,23.0,23.0,63,0.00,,,0.00,weatherlink.com 1.10,2013-08-05 05:15:00,
2013-08-05 00:30:00,86.2,72.0,29.92,SSE,164,10.0,19.0,63,0.00,,,0.00,weatherlink.com 1.10,2013-08-05 05:30:00,
2013-08-05 00:45:00,85.8,73.0,29.93,South,173,8.0,17.0,65,0.00,,,0.00,weatherlink.com 1.10,2013-08-05 05:45:00,
2013-08-05 01:00:00,85.2,73.0,29.93,SSW,193,12.0,17.0,66,0.00,,,0.00,weatherlink.com 1.10,2013-08-05 06:00:00,
2013-08-05 01:15:00,84.8,72.0,29.93,South,175,9.0,17.0,66,0.00,,,0.00,weatherlink.com 1.10,2013-08-05 06:15:00,
2013-08-05 01:30:00,84.4,72.0,29.93,South,178,8.0,15.0,67,0.00,,,0.00,weatherlink.com 1.10,2013-08-05 06:30:00,
2013-08-05 01:45:00,84.1,72.0,29.93,South,185,11.0,15.0,67,0.00,,,0.00,weatherlink.com 1.10,2013-08-05 06:45:00,
2013-08-05 02:00:00,83.7,72.0,29.93,SSE,165,3.0,13.0,67,0.00,,,0.00,weatherlink.com 1.10,2013-08-05 07:00:00,
2013-08-05 02:15:00,83.2,72.0,29.93,South,171,10.0,13.0,68,0.00,,,0.00,weatherlink.com 1.10,2013-08-05 07:15:00,
2013-08-05 02:30:00,82.7,71.0,29.93,South,182,12.0,16.0,68,0.00,,,0.00,weatherlink.com 1.10,2013-08-05 07:30:00,
2013-08-05 02:45:00,82.4,71.0,29.93,South,175,11.0,14.0,68,0.00,,,0.00,weatherlink.com 1.10,2013-08-05 07:45:00,
2013-08-05 03:00:00,82.1,69.0,29.93,South,179,3.0,13.0,65,0.00,,,0.00,weatherlink.com 1.10,2013-08-05 08:00:00,
2013-08-05 03:15:00,81.6,68.0,29.93,South,178,7.0,12.0,64,0.00,,,0.00,weatherlink.com 1.10,2013-08-05 08:15:00,
2013-08-05 03:30:00,81.3,67.0,29.93,South,172,9.0,11.0,63,0.00,,,0.00,weatherlink.com 1.10,2013-08-05 08:30:00,
2013-08-05 03:45:00,81.1,67.0,29.93,SSW,192,7.0,11.0,62,0.00,,,0.00,weatherlink.com 1.10,2013-08-05 08:45:00,
2013-08-05 04:00:00,80.9,67.0,29.94,South,178,5.0,11.0,62,0.00,,,0.00,weatherlink.com 1.10,2013-08-05 09:00:00,
2013-08-05 04:15:00,80.8,66.0,29.94,South,177,8.0,10.0,62,0.00,,,0.00,weatherlink.com 1.10,2013-08-05 09:15:00,
2013-08-05 04:30:00,80.7,66.0,29.94,South,175,4.0,11.0,61,0.00,,,0.00,weatherlink.com 1.10,2013-08-05 09:30:00,
2013-08-05 04:45:00,80.4,66.0,29.94,South,172,3.0,9.0,62,0.00,,,0.00,weatherlink.com 1.10,2013-08-05 09:45:00,
2013-08-05 05:00:00,80.0,66.0,29.93,South,171,7.0,10.0,62,0.00,,,0.00,weatherlink.com 1.10,2013-08-05 10:00:00,
2013-08-05 05:15:00,79.7,66.0,29.94,South,170,4.0,8.0,63,0.00,,,0.00,weatherlink.com 1.10,2013-08-05 10:15:00,
2013-08-05 05:45:00,79.0,66.0,29.93,South,174,7.0,9.0,65,0.00,,,0.00,weatherlink.com 1.10,2013-08-05 10:45:00,
2013-08-05 06:00:00,78.6,66.0,29.93,South,173,5.0,9.0,66,0.00,,,0.00,weatherlink.com 1.10,2013-08-05 11:00:00,
2013-08-05 06:30:00,78.0,67.0,29.94,South,173,3.0,9.0,69,0.00,,,0.00,weatherlink.com 1.10,2013-08-05 11:30:00,
2013-08-05 06:45:00,77.8,67.0,29.94,South,173,3.0,8.0,69,0.00,,,0.00,weatherlink.com 1.10,2013-08-05 11:45:00,
2013-08-05 07:00:00,77.6,68.0,29.94,South,173,4.0,9.0,71,0.00,,,0.00,weatherlink.com 1.10,2013-08-05 12:00:00,
2013-08-05 07:15:00,77.5,68.0,29.95,South,179,3.0,9.0,72,0.00,,,0.00,weatherlink.com 1.10,2013-08-05 12:15:00,
2013-08-05 07:30:00,77.6,68.0,29.95,South,179,2.0,8.0,73,0.00,,,0.00,weatherlink.com 1.10,2013-08-05 12:30:00,
2013-08-05 08:00:00,78.1,69.0,29.95,South,188,5.0,11.0,74,0.00,,,0.00,weatherlink.com 1.10,2013-08-05 13:00:00,
2013-08-05 08:15:00,78.5,70.0,29.96,South,181,5.0,11.0,75,0.00,,,0.00,weatherlink.com 1.10,2013-08-05 13:15:00,
2013-08-05 08:30:00,78.9,70.0,29.96,South,189,6.0,11.0,74,0.00,,,0.00,weatherlink.com 1.10,2013-08-05 13:30:00,
2013-08-05 08:45:00,79.7,70.0,29.96,SSW,194,4.0,12.0,73,0.00,,,0.00,weatherlink.com 1.10,2013-08-05 13:45:00,
2013-08-05 09:00:00,80.2,71.0,29.96,SSW,196,7.0,11.0,73,0.00,,,0.00,weatherlink.com 1.10,2013-08-05 14:00:00,
2013-08-05 09:15:00,80.8,71.0,29.96,SSW,192,7.0,12.0,71,0.00,,,0.00,weatherlink.com 1.10,2013-08-05 14:15:00,
2013-08-05 09:30:00,81.4,71.0,29.96,South,188,7.0,12.0,71,0.00,,,0.00,weatherlink.com 1.10,2013-08-05 14:30:00,
2013-08-05 09:45:00,81.9,71.0,29.96,SSW,194,10.0,11.0,70,0.00,,,0.00,weatherlink.com 1.10,2013-08-05 14:45:00,
2013-08-05 10:00:00,82.7,71.0,29.96,SSW,198,8.0,14.0,68,0.00,,,0.00,weatherlink.com 1.10,2013-08-05 15:00:00,
2013-08-05 10:15:00,83.2,71.0,29.95,SSW,196,7.0,10.0,67,0.00,,,0.00,weatherlink.com 1.10,2013-08-05 15:15:00,
2013-08-05 10:30:00,84.2,72.0,29.95,South,190,7.0,10.0,66,0.00,,,0.00,weatherlink.com 1.10,2013-08-05 15:30:00,
2013-08-05 10:45:00,85.2,71.0,29.95,South,190,5.0,11.0,63,0.00,,,0.00,weatherlink.com 1.10,2013-08-05 15:45:00,
2013-08-05 11:01:00,85.9,71.0,29.95,South,186,6.0,10.0,61,0.00,,,0.00,weatherlink.com 1.10,2013-08-05 16:01:00,
2013-08-05 11:16:00,86.6,71.0,29.95,South,169,8.0,12.0,60,0.00,,,0.00,weatherlink.com 1.10,2013-08-05 16:16:00,
2013-08-05 11:31:00,87.0,70.0,29.94,South,174,7.0,9.0,58,0.00,,,0.00,weatherlink.com 1.10,2013-08-05 16:31:00,
2013-08-05 11:45:00,87.6,70.0,29.94,SSW,192,6.0,11.0,57,0.00,,,0.00,weatherlink.com 1.10,2013-08-05 16:45:00,
2013-08-05 12:16:00,88.8,71.0,29.93,South,186,5.0,11.0,55,0.00,,,0.00,weatherlink.com 1.10,2013-08-05 17:16:00,
2013-08-05 12:31:00,89.7,70.0,29.92,South,182,9.0,11.0,53,0.00,,,0.00,weatherlink.com 1.10,2013-08-05 17:31:00,
2013-08-05 14:01:00,93.8,69.0,29.89,South,173,5.0,8.0,44,0.00,,,0.00,weatherlink.com 1.10,2013-08-05 19:01:00,
2013-08-05 14:16:00,94.9,68.0,29.88,SSE,154,3.0,9.0,42,0.00,,,0.00,weatherlink.com 1.10,2013-08-05 19:16:00,
2013-08-05 14:31:00,95.2,68.0,29.87,South,170,7.0,11.0,41,0.00,,,0.00,weatherlink.com 1.10,2013-08-05 19:31:00,
2013-08-05 14:46:00,95.3,67.0,29.86,South,179,9.0,15.0,39,0.00,,,0.00,weatherlink.com 1.10,2013-08-05 19:46:00,
2013-08-05 15:02:00,95.8,67.0,29.86,South,178,8.0,14.0,39,0.00,,,0.00,weatherlink.com 1.10,2013-08-05 20:02:00,
2013-08-05 15:47:00,96.9,67.0,29.84,SE,141,7.0,16.0,38,0.00,,,0.00,weatherlink.com 1.10,2013-08-05 20:47:00,
2013-08-05 16:02:00,96.9,63.0,29.83,South,172,7.0,18.0,33,0.00,,,0.00,weatherlink.com 1.10,2013-08-05 21:02:00,
2013-08-05 16:32:00,96.7,63.0,29.82,South,170,9.0,15.0,33,0.00,,,0.00,weatherlink.com 1.10,2013-08-05 21:32:00,
2013-08-05 16:47:00,96.3,67.0,29.82,SSE,153,10.0,14.0,38,0.00,,,0.00,weatherlink.com 1.10,2013-08-05 21:47:00,
2013-08-05 17:02:00,97.5,64.0,29.81,South,183,4.0,18.0,33,0.00,,,0.00,weatherlink.com 1.10,2013-08-05 22:02:00,
2013-08-05 17:17:00,96.7,66.0,29.81,South,172,7.0,16.0,36,0.00,,,0.00,weatherlink.com 1.10,2013-08-05 22:17:00,
2013-08-05 17:32:00,97.3,67.0,29.80,SSE,160,16.0,19.0,37,0.00,,,0.00,weatherlink.com 1.10,2013-08-05 22:32:00,
2013-08-05 18:17:00,96.6,67.0,29.80,SSE,158,11.0,16.0,38,0.00,,,0.00,weatherlink.com 1.10,2013-08-05 23:17:00,
2013-08-05 18:32:00,96.2,68.0,29.79,South,179,11.0,16.0,40,0.00,,,0.00,weatherlink.com 1.10,2013-08-05 23:32:00,
2013-08-05 18:47:00,96.3,68.0,29.79,SSE,161,14.0,16.0,40,0.00,,,0.00,weatherlink.com 1.10,2013-08-05 23:47:00,
2013-08-05 19:02:00,96.3,68.0,29.79,SSE,163,12.0,15.0,39,0.00,,,0.00,weatherlink.com 1.10,2013-08-06 00:02:00,
2013-08-05 19:17:00,95.6,68.0,29.78,South,174,8.0,15.0,41,0.00,,,0.00,weatherlink.com 1.10,2013-08-06 00:17:00,
2013-08-05 19:32:00,95.1,69.0,29.78,South,173,9.0,14.0,42,0.00,,,0.00,weatherlink.com 1.10,2013-08-06 00:32:00,
2013-08-05 19:47:00,94.8,68.0,29.78,SSE,165,11.0,18.0,42,0.00,,,0.00,weatherlink.com 1.10,2013-08-06 00:47:00,
2013-08-05 20:02:00,94.2,70.0,29.79,SSE,159,9.0,14.0,45,0.00,,,0.00,weatherlink.com 1.10,2013-08-06 01:02:00,
2013-08-05 20:32:00,92.6,72.0,29.79,SSE,160,7.0,11.0,51,0.00,,,0.00,weatherlink.com 1.10,2013-08-06 01:32:00,
2013-08-05 20:47:00,91.7,71.0,29.79,SSE,157,7.0,10.0,50,0.00,,,0.00,weatherlink.com 1.10,2013-08-06 01:47:00,
2013-08-05 21:17:00,91.0,69.0,29.79,SSE,165,10.0,13.0,49,0.00,,,0.00,weatherlink.com 1.10,2013-08-06 02:17:00,
2013-08-05 21:32:00,90.6,69.0,29.79,SSE,163,9.0,11.0,50,0.00,,,0.00,weatherlink.com 1.10,2013-08-06 02:32:00,
2013-08-05 22:02:00,90.1,68.0,29.79,South,171,10.0,13.0,48,0.00,,,0.00,weatherlink.com 1.10,2013-08-06 03:02:00,
2013-08-05 22:32:00,90.0,70.0,29.80,SSE,167,18.0,24.0,52,0.00,,,0.00,weatherlink.com 1.10,2013-08-06 03:32:00,
2013-08-05 22:47:00,89.5,70.0,29.81,SSE,168,10.0,25.0,52,0.00,,,0.00,weatherlink.com 1.10,2013-08-06 03:47:00,
2013-08-05 23:02:00,89.1,70.0,29.81,South,177,10.0,27.0,54,0.00,,,0.00,weatherlink.com 1.10,2013-08-06 04:02:00,
2013-08-05 23:17:00,88.7,70.0,29.82,SSE,156,16.0,24.0,54,0.00,,,0.00,weatherlink.com 1.10,2013-08-06 04:17:00,
2013-08-05 23:32:00,88.1,70.0,29.82,South,174,21.0,25.0,55,0.00,,,0.00,weatherlink.com 1.10,2013-08-06 04:32:00,
2013-08-05 23:47:00,87.6,70.0,29.82,South,181,10.0,25.0,56,0.00,,,0.00,weatherlink.com 1.10,2013-08-06 04:47:00,